Time;durP1;ratioP1;P1;durP2;ratioP2;P2;SDS_P1;SDS_P2;PMS_P1;PMS_P2;Temp;Humidity;BMP_temperature;BMP_pressure;BME280_temperature;BME280_humidity;BME280_pressure;Samples;Min_cycle;Max_cycle;Signal;HPM_P1;HPM_P2
2022/01/08 00:01:11;;;;;;;18.08;5.63;;;;;;;3.42;82.38;100639.66;5037452;28;20482;-65
2022/01/08 00:03:39;;;;;;;12.68;5.47;;;;;;;3.44;82.43;100638.63;5053746;28;20537;-65
2022/01/08 00:06:07;;;;;;;14.70;5.60;;;;;;;3.45;82.90;100645.53;5054671;28;20052;-65
2022/01/08 00:08:36;;;;;;;15.10;5.80;;;;;;;3.49;82.23;100640.91;5052223;28;20048;-65
2022/01/08 00:11:02;;;;;;;16.58;5.50;;;;;;;3.51;82.12;100644.28;5053912;28;20102;-65
2022/01/08 00:13:29;;;;;;;14.65;5.20;;;;;;;3.50;82.61;100632.09;5053693;28;20045;-65
2022/01/08 00:15:56;;;;;;;13.98;5.68;;;;;;;3.58;82.96;100642.03;5054181;28;20055;-65
2022/01/08 00:18:23;;;;;;;16.50;5.88;;;;;;;3.58;83.09;100649.91;5054579;28;20045;-65
2022/01/08 00:20:50;;;;;;;20.02;6.15;;;;;;;3.58;82.89;100644.66;5074610;28;20037;-65
2022/01/08 00:23:17;;;;;;;14.50;5.60;;;;;;;3.57;83.57;100645.63;5073530;28;20053;-65
2022/01/08 00:25:44;;;;;;;17.27;6.22;;;;;;;3.54;83.25;100638.78;5073970;28;20033;-65
2022/01/08 00:28:11;;;;;;;16.35;5.97;;;;;;;3.65;81.32;100645.88;5073131;28;20040;-65
2022/01/08 00:30:37;;;;;;;16.35;5.40;;;;;;;3.57;80.94;100649.06;5055114;28;20051;-65
2022/01/08 00:33:04;;;;;;;14.65;5.30;;;;;;;3.56;81.16;100643.94;5065971;28;20040;-65
2022/01/08 00:35:32;;;;;;;14.93;5.40;;;;;;;3.46;82.22;100652.47;5037950;28;20046;-65
2022/01/08 00:38:00;;;;;;;13.77;5.03;;;;;;;3.63;82.62;100648.63;5054157;28;20041;-65
2022/01/08 00:40:27;;;;;;;12.88;5.15;;;;;;;3.53;81.91;100650.25;5054149;28;20040;-65
2022/01/08 00:42:54;;;;;;;20.27;4.85;;;;;;;3.63;81.60;100658.28;5054239;28;20413;-65
2022/01/08 00:45:21;;;;;;;12.65;4.70;;;;;;;3.45;82.17;100657.81;5052750;28;20044;-65
2022/01/08 00:47:48;;;;;;;18.60;5.50;;;;;;;3.20;84.58;100659.59;5053234;28;20516;-65
2022/01/08 00:50:15;;;;;;;21.20;6.30;;;;;;;3.24;83.98;100662.81;5070391;28;20131;-65
2022/01/08 00:52:42;;;;;;;16.42;5.53;;;;;;;3.25;83.34;100657.44;5056708;28;20037;-65
2022/01/08 00:55:11;;;;;;;14.88;5.45;;;;;;;3.16;83.79;100662.50;5072675;28;20067;-65
2022/01/08 00:57:37;;;;;;;14.07;5.53;;;;;;;3.14;84.15;100669.66;5072939;28;20036;-65
2022/01/08 01:00:07;;;;;;;15.77;5.28;;;;;;;3.06;84.27;100673.66;5073589;28;20043;-66
2022/01/08 01:02:34;;;;;;;14.07;5.45;;;;;;;3.05;84.46;100668.50;5073966;28;20048;-65
2022/01/08 01:05:03;;;;;;;14.38;5.38;;;;;;;2.99;84.13;100663.72;5066520;28;20040;-65
2022/01/08 01:07:30;;;;;;;18.00;5.75;;;;;;;2.97;84.40;100658.56;5055120;28;20501;-65
2022/01/08 01:09:57;;;;;;;16.52;5.10;;;;;;;2.88;84.27;100667.91;5067879;28;20047;-65
2022/01/08 01:12:24;;;;;;;12.35;5.22;;;;;;;2.90;84.73;100669.59;5054893;28;20048;-65
2022/01/08 01:15:06;;;;;;;12.38;4.90;;;;;;;2.88;84.19;100665.28;5052292;28;20036;-65
2022/01/08 01:17:32;;;;;;;13.18;4.95;;;;;;;2.87;84.54;100660.13;5053550;28;20098;-65
2022/01/08 01:19:59;;;;;;;11.82;5.60;;;;;;;2.82;84.53;100662.25;5072967;28;20102;-65
2022/01/08 01:22:30;;;;;;;18.55;5.32;;;;;;;2.88;84.29;100665.28;5073244;28;20493;-65
2022/01/08 01:25:04;;;;;;;20.27;6.22;;;;;;;2.86;84.67;100669.78;5068396;28;20059;-65
2022/01/08 01:30:25;;;;;;;12.57;6.03;;;;;;;2.83;84.74;100671.78;5057893;28;20049;-65
2022/01/08 01:41:23;;;;;;;16.15;6.03;;;;;;;2.62;84.79;100688.03;5072090;28;20044;-65
2022/01/08 01:49:10;;;;;;;17.42;7.00;;;;;;;2.80;84.72;100685.09;5072787;28;20052;-65
2022/01/08 01:51:37;;;;;;;15.82;6.68;;;;;;;2.57;85.52;100674.41;5071811;28;20098;-65
2022/01/08 01:54:03;;;;;;;15.73;6.03;;;;;;;2.46;85.29;100683.00;5072977;28;20124;-65
2022/01/08 01:56:30;;;;;;;16.73;6.40;;;;;;;2.41;85.74;100679.00;5054808;28;20440;-65
2022/01/08 01:58:57;;;;;;;16.83;6.28;;;;;;;2.31;86.25;100681.41;5073071;28;20053;-65
2022/01/08 02:01:24;;;;;;;15.10;6.78;;;;;;;2.28;86.17;100686.84;5052819;28;20041;-65
2022/01/08 02:03:52;;;;;;;16.35;6.78;;;;;;;2.24;86.37;100688.81;5050289;28;20049;-65
2022/01/08 02:06:19;;;;;;;16.33;7.55;;;;;;;2.20;86.24;100692.59;5051775;28;20555;-65
2022/01/08 02:08:46;;;;;;;17.00;6.65;;;;;;;2.30;85.83;100687.56;5030353;28;20515;-65
2022/01/08 02:11:14;;;;;;;13.63;6.63;;;;;;;2.21;86.59;100678.53;5038950;28;20094;-65
2022/01/08 02:13:41;;;;;;;18.40;7.18;;;;;;;2.10;87.08;100678.41;5059665;28;20128;-65
2022/01/08 02:16:16;;;;;;;21.17;7.30;;;;;;;2.20;86.38;100687.34;5052486;28;20033;-65
2022/01/08 02:18:45;;;;;;;17.48;7.90;;;;;;;2.26;85.78;100683.50;5052603;28;20049;-65
2022/01/08 02:21:15;;;;;;;24.58;7.40;;;;;;;2.10;86.54;100689.72;5052880;28;20106;-65
2022/01/08 02:23:42;;;;;;;20.70;7.50;;;;;;;2.00;86.67;100685.19;5051694;28;20045;-65
2022/01/08 02:26:11;;;;;;;17.98;7.90;;;;;;;2.04;86.65;100684.91;5065166;28;20044;-65
2022/01/08 02:28:39;;;;;;;22.30;7.30;;;;;;;1.95;86.81;100688.13;5071592;28;20044;-65
2022/01/08 02:31:07;;;;;;;17.02;7.50;;;;;;;1.87;86.52;100669.44;5072997;28;20037;-65
2022/01/08 02:33:34;;;;;;;18.42;7.63;;;;;;;1.82;86.37;100674.13;5071537;28;20053;-65
2022/01/08 02:36:06;;;;;;;18.58;8.25;;;;;;;1.88;86.78;100679.00;5049485;28;20080;-65
2022/01/08 02:38:33;;;;;;;17.90;7.65;;;;;;;1.85;86.56;100677.38;5051645;28;20095;-65
2022/01/08 02:41:03;;;;;;;23.52;9.10;;;;;;;1.98;86.55;100682.66;5052500;28;20041;-65
2022/01/08 02:43:33;;;;;;;26.58;10.10;;;;;;;1.84;87.63;100673.13;5051598;28;20513;-65
2022/01/08 02:46:01;;;;;;;20.35;8.75;;;;;;;1.69;87.42;100680.19;5052267;28;20124;-65
2022/01/08 02:48:27;;;;;;;22.98;8.90;;;;;;;1.65;87.20;100678.69;5052585;28;20102;-65
2022/01/08 02:50:54;;;;;;;20.73;8.48;;;;;;;1.67;87.47;100678.59;5051288;28;20057;-65
2022/01/08 02:53:21;;;;;;;17.70;8.50;;;;;;;1.83;86.89;100681.06;5052500;28;20543;-65
2022/01/08 02:55:51;;;;;;;18.67;9.48;;;;;;;1.88;87.21;100679.81;5053956;28;20445;-65
2022/01/08 02:58:18;;;;;;;23.08;9.93;;;;;;;1.96;87.07;100684.53;5071830;28;20047;-65
2022/01/08 03:00:44;;;;;;;20.38;9.95;;;;;;;2.00;86.86;100685.19;5072422;28;20044;-65
2022/01/08 03:03:13;;;;;;;22.67;10.00;;;;;;;1.87;87.42;100680.78;5090845;28;20040;-65
2022/01/08 03:05:41;;;;;;;22.58;9.38;;;;;;;1.90;87.46;100682.34;5073526;28;20426;-65
2022/01/08 03:08:08;;;;;;;19.90;9.75;;;;;;;1.98;87.63;100680.03;5070149;28;20037;-65
2022/01/08 03:10:34;;;;;;;23.48;10.65;;;;;;;1.75;87.66;100685.94;5068883;28;20051;-65
2022/01/08 03:13:02;;;;;;;22.23;10.48;;;;;;;1.86;87.63;100694.78;5070843;28;20041;-65
2022/01/08 03:15:33;;;;;;;21.13;9.95;;;;;;;1.81;88.14;100694.22;5070991;28;20047;-65
2022/01/08 03:18:00;;;;;;;24.08;10.25;;;;;;;2.04;86.64;100695.38;5071046;28;20079;-65
2022/01/08 03:20:27;;;;;;;23.10;10.40;;;;;;;1.58;88.07;100693.06;5070933;28;20040;-65
2022/01/08 03:23:01;;;;;;;22.83;9.75;;;;;;;1.77;87.92;100699.78;5071401;28;20052;-65
2022/01/08 03:25:30;;;;;;;25.67;10.95;;;;;;;1.81;87.97;100698.63;5066349;28;20040;-64
2022/01/08 03:27:57;;;;;;;21.88;10.30;;;;;;;1.82;87.11;100702.91;5070857;28;20040;-64
2022/01/08 03:30:24;;;;;;;24.65;10.63;;;;;;;1.81;87.81;100709.94;5060508;28;20417;-65
2022/01/08 03:32:52;;;;;;;23.30;11.07;;;;;;;1.79;87.44;100717.03;5055521;28;20379;-65
2022/01/08 03:35:19;;;;;;;27.45;11.10;;;;;;;1.75;87.03;100712.09;5048682;28;20603;-64
2022/01/08 03:37:47;;;;;;;29.52;11.93;;;;;;;1.58;87.83;100721.84;5074462;28;20044;-65
2022/01/08 03:40:14;;;;;;;26.17;11.63;;;;;;;1.55;87.68;100729.91;5074339;28;20101;-65
2022/01/08 03:42:41;;;;;;;28.55;10.98;;;;;;;1.58;87.56;100729.69;5074159;28;20095;-65
2022/01/08 03:45:08;;;;;;;26.60;11.98;;;;;;;1.44;88.08;100735.78;5075370;28;20123;-65
2022/01/08 03:47:54;;;;;;;26.98;11.73;;;;;;;1.48;88.51;100737.28;5074079;28;20040;-65
2022/01/08 03:50:20;;;;;;;27.38;11.75;;;;;;;1.40;88.87;100731.69;5074339;28;20442;-65
2022/01/08 03:52:47;;;;;;;26.13;12.27;;;;;;;1.40;88.50;100736.94;5057693;28;20102;-64
2022/01/08 03:55:14;;;;;;;33.53;14.60;;;;;;;1.44;88.71;100740.19;5075254;28;20534;-65
2022/01/08 03:57:40;;;;;;;22.10;11.55;;;;;;;1.39;88.51;100737.03;5073998;28;20040;-65
2022/01/08 04:00:08;;;;;;;28.52;13.65;;;;;;;1.38;89.11;100743.16;5075310;28;20041;-65
2022/01/08 04:02:38;;;;;;;31.80;13.70;;;;;;;1.27;89.08;100736.81;5083052;28;20040;-65
2022/01/08 04:05:06;;;;;;;31.92;13.23;;;;;;;1.30;88.89;100741.03;5075801;28;20385;-64
2022/01/08 04:07:34;;;;;;;31.98;13.60;;;;;;;1.35;89.24;100746.81;5073976;28;20053;-64
2022/01/08 04:10:01;;;;;;;32.95;13.85;;;;;;;1.43;88.55;100748.97;5058394;28;20043;-65
2022/01/08 04:12:36;;;;;;;30.77;13.25;;;;;;;1.43;88.63;100748.97;5055753;28;20098;-65
2022/01/08 04:15:08;;;;;;;30.90;13.55;;;;;;;1.39;88.00;100750.91;5059933;28;20116;-65
2022/01/08 04:17:35;;;;;;;28.77;13.63;;;;;;;1.41;88.61;100753.44;5054973;28;20051;-64
2022/01/08 04:20:02;;;;;;;30.30;14.40;;;;;;;1.47;88.20;100761.72;5053633;28;20045;-65
2022/01/08 04:22:29;;;;;;;29.45;14.02;;;;;;;1.36;88.45;100765.94;5054617;28;20124;-65
2022/01/08 04:24:56;;;;;;;28.83;13.05;;;;;;;1.35;88.43;100762.50;5054372;28;20041;-65
2022/01/08 04:27:22;;;;;;;29.27;13.38;;;;;;;1.46;87.58;100762.69;5060801;28;20092;-65
2022/01/08 04:29:49;;;;;;;34.55;14.85;;;;;;;1.46;87.48;100757.44;5074333;28;20493;-65
2022/01/08 04:32:16;;;;;;;27.15;13.50;;;;;;;1.44;87.83;100766.34;5055384;28;20056;-65
2022/01/08 04:34:42;;;;;;;28.95;13.00;;;;;;;1.31;87.82;100779.28;5074203;28;20382;-64
2022/01/08 04:37:10;;;;;;;33.90;13.25;;;;;;;1.40;87.64;100772.66;5073168;28;20123;-65
2022/01/08 04:39:36;;;;;;;27.70;12.80;;;;;;;1.48;87.07;100781.72;5056820;28;20071;-64
2022/01/08 04:42:03;;;;;;;25.20;11.88;;;;;;;1.42;87.08;100779.50;5074902;28;20044;-64
2022/01/08 04:44:30;;;;;;;31.55;12.68;;;;;;;1.42;87.54;100776.88;5074217;28;20036;-65
2022/01/08 04:46:57;;;;;;;29.58;11.93;;;;;;;1.25;87.93;100777.88;5074263;28;20040;-65
2022/01/08 04:49:24;;;;;;;31.00;13.52;;;;;;;1.41;87.73;100784.81;5056733;28;20521;-65
2022/01/08 04:51:53;;;;;;;31.75;12.77;;;;;;;1.25;87.89;100793.56;5074258;28;20048;-65
2022/01/08 04:54:21;;;;;;;28.05;12.80;;;;;;;1.14;88.08;100793.38;5072605;28;20048;-65
2022/01/08 04:56:48;;;;;;;28.23;14.13;;;;;;;1.19;88.86;100786.13;5073669;28;20051;-65
2022/01/08 04:59:16;;;;;;;27.27;12.15;;;;;;;1.45;87.83;100781.91;5074126;28;20052;-64
2022/01/08 05:01:43;;;;;;;31.20;13.73;;;;;;;1.31;87.71;100787.13;5072961;28;20044;-64
2022/01/08 05:04:11;;;;;;;28.02;13.88;;;;;;;1.23;87.71;100785.00;5081732;28;20047;-64
2022/01/08 05:06:39;;;;;;;31.55;13.32;;;;;;;1.43;87.48;100786.38;5093881;28;20500;-64
2022/01/08 05:09:06;;;;;;;31.20;13.02;;;;;;;1.34;87.54;100798.25;5092824;28;20067;-64
2022/01/08 05:11:33;;;;;;;29.63;13.75;;;;;;;1.41;87.48;100798.72;5076300;28;20040;-65
2022/01/08 05:13:59;;;;;;;28.42;13.75;;;;;;;1.38;87.21;100792.84;5092909;28;20451;-65
2022/01/08 05:16:28;;;;;;;33.50;13.57;;;;;;;1.40;87.34;100801.41;5092694;28;20032;-65
2022/01/08 05:18:55;;;;;;;26.92;12.75;;;;;;;1.44;86.69;100797.72;5068292;28;20044;-65
2022/01/08 05:21:28;;;;;;;30.42;13.82;;;;;;;1.30;87.41;100804.59;5052393;28;20517;-65
2022/01/08 05:23:57;;;;;;;31.63;14.07;;;;;;;1.27;87.24;100796.94;5053600;28;20076;-64
2022/01/08 05:26:25;;;;;;;28.25;13.38;;;;;;;1.24;87.45;100796.31;5031755;28;20037;-65
2022/01/08 05:28:53;;;;;;;35.38;12.70;;;;;;;1.15;88.69;100803.75;5035976;28;20037;-65
2022/01/08 05:31:22;;;;;;;24.30;13.15;;;;;;;1.26;87.80;100802.28;5032047;28;20486;-65
2022/01/08 05:33:51;;;;;;;28.38;13.18;;;;;;;1.36;87.53;100797.31;5040821;28;20045;-65
2022/01/08 05:36:18;;;;;;;25.35;12.52;;;;;;;1.27;87.84;100802.16;5032707;28;20445;-64
2022/01/08 05:38:44;;;;;;;27.52;13.27;;;;;;;1.19;87.55;100807.03;5045508;28;20045;-64
2022/01/08 05:41:11;;;;;;;29.42;13.40;;;;;;;1.38;87.04;100811.97;5053174;28;20498;-65
2022/01/08 05:43:38;;;;;;;27.02;12.80;;;;;;;1.27;86.53;100807.38;5053394;28;20448;-65
2022/01/08 05:46:05;;;;;;;27.88;12.85;;;;;;;1.37;87.16;100814.69;5035294;28;20049;-65
2022/01/08 05:48:31;;;;;;;29.85;13.00;;;;;;;1.33;87.03;100804.41;5053058;28;20045;-64
2022/01/08 05:50:58;;;;;;;27.38;12.70;;;;;;;1.40;86.59;100809.25;5048494;28;20048;-65
2022/01/08 05:53:25;;;;;;;33.22;14.02;;;;;;;1.24;87.35;100812.81;5052659;28;20048;-65
2022/01/08 05:55:51;;;;;;;33.22;13.82;;;;;;;1.13;87.31;100815.25;5052551;28;20112;-65
2022/01/08 05:58:18;;;;;;;29.20;13.30;;;;;;;1.15;87.44;100822.03;5052978;28;20055;-64
2022/01/08 06:00:45;;;;;;;33.13;13.80;;;;;;;1.00;88.04;100825.56;5035231;28;20049;-64
2022/01/08 06:03:11;;;;;;;29.73;12.88;;;;;;;1.15;88.04;100826.44;5052693;28;20045;-65
2022/01/08 06:05:38;;;;;;;25.88;13.40;;;;;;;1.18;87.11;100822.78;5043726;28;20041;-65
2022/01/08 06:08:05;;;;;;;29.02;13.60;;;;;;;1.17;88.22;100834.19;5052325;28;20045;-64
2022/01/08 06:10:33;;;;;;;27.48;13.80;;;;;;;0.98;88.18;100832.63;5052516;28;20080;-65
2022/01/08 06:13:01;;;;;;;31.50;13.43;;;;;;;1.26;87.58;100831.03;5052867;28;20072;-65
2022/01/08 06:15:27;;;;;;;36.55;12.68;;;;;;;1.26;87.71;100836.25;5052664;28;20045;-65
2022/01/08 06:17:54;;;;;;;24.23;9.77;;;;;;;1.27;87.73;100832.69;5052358;28;20044;-66
2022/01/08 06:20:21;;;;;;;29.98;13.48;;;;;;;1.15;87.88;100844.72;5052502;28;20037;-65
2022/01/08 06:22:47;;;;;;;31.25;13.45;;;;;;;1.16;87.99;100843.78;5052212;28;20053;-65
2022/01/08 06:25:14;;;;;;;29.50;12.88;;;;;;;1.10;87.85;100847.59;5052684;28;20098;-65
2022/01/08 06:27:41;;;;;;;34.97;13.68;;;;;;;1.14;88.25;100858.72;5048922;28;20124;-65
2022/01/08 06:30:08;;;;;;;31.85;12.98;;;;;;;1.20;87.84;100852.28;5050477;28;20041;-65
2022/01/08 06:32:35;;;;;;;27.02;12.80;;;;;;;1.11;88.36;100858.88;5052259;28;20048;-64
2022/01/08 06:35:02;;;;;;;34.83;13.23;;;;;;;1.14;88.39;100867.38;5027972;28;20083;-64
2022/01/08 06:37:29;;;;;;;33.28;13.32;;;;;;;1.17;88.52;100870.78;5051282;28;20060;-64
2022/01/08 06:39:55;;;;;;;26.67;12.38;;;;;;;1.24;88.15;100874.72;5052718;28;20049;-65
2022/01/08 06:42:22;;;;;;;31.67;13.45;;;;;;;1.11;87.92;100872.81;5035051;28;20069;-64
2022/01/08 06:44:49;;;;;;;30.75;13.27;;;;;;;1.12;87.84;100878.88;5014779;28;20049;-65
2022/01/08 06:47:15;;;;;;;30.05;13.50;;;;;;;1.11;88.01;100883.25;5032245;28;20079;-65
2022/01/08 06:49:43;;;;;;;26.70;12.50;;;;;;;1.11;88.13;100878.03;5044369;28;20119;-65
2022/01/08 06:52:10;;;;;;;32.28;13.52;;;;;;;1.03;88.29;100882.84;5051810;28;20037;-64
2022/01/08 06:54:37;;;;;;;34.80;13.18;;;;;;;1.14;87.42;100879.63;5017975;28;20052;-65
2022/01/08 06:57:04;;;;;;;32.10;13.52;;;;;;;1.14;87.43;100882.22;5034597;28;20033;-65
2022/01/08 06:59:31;;;;;;;34.90;13.65;;;;;;;1.12;88.06;100884.09;5017694;28;20079;-65
2022/01/08 07:01:57;;;;;;;32.33;13.25;;;;;;;1.06;88.56;100880.06;5018290;28;20037;-65
2022/01/08 07:04:24;;;;;;;27.98;13.55;;;;;;;1.15;87.83;100879.53;5051313;28;20075;-65
2022/01/08 07:06:51;;;;;;;31.42;13.02;;;;;;;1.23;87.67;100879.06;5038006;28;20371;-65
2022/01/08 07:09:17;;;;;;;31.15;13.35;;;;;;;1.13;87.95;100889.22;5038566;28;20052;-64
2022/01/08 07:11:45;;;;;;;28.50;13.63;;;;;;;1.12;88.30;100886.72;5038369;28;20260;-65
2022/01/08 07:14:12;;;;;;;38.72;15.52;;;;;;;1.21;87.57;100883.56;5021885;28;20045;-64
2022/01/08 07:16:39;;;;;;;35.45;14.45;;;;;;;1.12;88.32;100890.16;5038000;28;20128;-65
2022/01/08 07:19:06;;;;;;;27.88;13.05;;;;;;;1.07;88.36;100893.97;5038338;28;20057;-65
2022/01/08 07:21:32;;;;;;;32.28;13.45;;;;;;;1.13;87.42;100885.78;5055604;28;20049;-65
2022/01/08 07:23:59;;;;;;;27.20;12.85;;;;;;;1.06;88.29;100893.13;5038385;28;20045;-65
2022/01/08 07:26:26;;;;;;;32.35;13.60;;;;;;;1.11;88.23;100885.00;5053069;28;20128;-65
2022/01/08 07:28:52;;;;;;;31.10;13.40;;;;;;;1.00;88.05;100885.66;5036296;28;20405;-65
2022/01/08 07:31:19;;;;;;;32.55;13.45;;;;;;;1.20;87.29;100876.66;5073534;28;20036;-65
2022/01/08 07:33:49;;;;;;;34.05;13.18;;;;;;;1.02;87.79;100883.81;5007111;28;20099;-65
2022/01/08 07:36:17;;;;;;;31.55;13.40;;;;;;;1.13;87.49;100875.34;5055363;28;20127;-65
2022/01/08 07:38:45;;;;;;;24.90;12.77;;;;;;;1.05;88.10;100870.53;5038004;28;20049;-65
2022/01/08 07:41:11;;;;;;;31.52;13.57;;;;;;;1.21;87.29;100885.34;5055400;28;20045;-65
2022/01/08 07:43:38;;;;;;;28.67;12.88;;;;;;;1.26;87.77;100891.97;5021472;28;20071;-64
2022/01/08 07:46:05;;;;;;;30.15;11.98;;;;;;;1.10;87.70;100884.19;5037518;28;20029;-65
2022/01/08 07:48:32;;;;;;;26.10;12.70;;;;;;;1.06;88.36;100900.97;5037563;28;20489;-65
2022/01/08 07:50:59;;;;;;;24.10;13.00;;;;;;;1.13;88.01;100898.84;5021515;28;20119;-64
2022/01/08 07:53:26;;;;;;;26.25;11.63;;;;;;;1.17;88.60;100896.91;5037478;28;20087;-65
2022/01/08 07:55:53;;;;;;;32.53;14.60;;;;;;;1.20;87.94;100896.72;5054934;28;20048;-65
2022/01/08 07:58:20;;;;;;;32.28;12.25;;;;;;;1.27;87.92;100900.66;5054931;28;20041;-64
2022/01/08 08:00:48;;;;;;;31.25;13.23;;;;;;;1.27;87.75;100903.25;5055112;28;20095;-64
2022/01/08 08:03:15;;;;;;;29.15;11.98;;;;;;;1.35;87.66;100901.03;5054675;28;20044;-65
2022/01/08 08:05:42;;;;;;;26.92;12.15;;;;;;;1.39;87.47;100905.16;5050198;28;20076;-65
2022/01/08 08:08:09;;;;;;;36.15;14.77;;;;;;;1.32;87.74;100896.00;5031056;28;20041;-65
2022/01/08 08:10:35;;;;;;;33.80;13.20;;;;;;;1.32;88.20;100894.22;5037131;28;20083;-65
2022/01/08 08:13:03;;;;;;;32.20;13.07;;;;;;;1.37;87.83;100893.94;5054928;28;20045;-65
2022/01/08 08:15:30;;;;;;;33.20;13.30;;;;;;;1.20;88.39;100887.13;5054487;28;20045;-66
2022/01/08 08:17:57;;;;;;;30.95;14.23;;;;;;;1.49;87.74;100885.38;4972094;28;20098;-66
2022/01/08 08:20:24;;;;;;;35.30;12.50;;;;;;;1.50;87.52;100888.84;5054682;28;20041;-63
2022/01/08 08:22:50;;;;;;;33.35;12.98;;;;;;;1.54;87.00;100891.16;5069284;28;20049;-64
2022/01/08 08:25:17;;;;;;;33.47;13.60;;;;;;;1.61;86.96;100882.97;5074582;28;20123;-64
2022/01/08 08:27:44;;;;;;;35.38;15.32;;;;;;;1.39;87.78;100886.03;5072984;28;20504;-64
2022/01/08 08:30:11;;;;;;;25.92;11.30;;;;;;;1.65;87.60;100885.28;5047766;28;20047;-64
2022/01/08 08:32:38;;;;;;;33.80;14.23;;;;;;;1.69;86.98;100871.09;5053549;28;20091;-65
2022/01/08 08:35:05;;;;;;;35.05;14.18;;;;;;;1.83;86.78;100878.09;5053559;28;20132;-64
2022/01/08 08:37:35;;;;;;;38.42;14.40;;;;;;;1.77;87.36;100877.66;5053063;28;20441;-64
2022/01/08 08:40:04;;;;;;;33.25;14.50;;;;;;;1.87;86.64;100878.75;5054243;28;20505;-64
2022/01/08 08:42:31;;;;;;;33.40;13.00;;;;;;;1.92;86.91;100887.97;5054371;28;20037;-65
2022/01/08 08:44:58;;;;;;;31.63;14.43;;;;;;;1.96;86.37;100883.41;5054393;28;20136;-64
2022/01/08 08:47:24;;;;;;;37.72;15.55;;;;;;;1.96;85.94;100872.94;5036154;28;20098;-64
2022/01/08 08:49:51;;;;;;;38.22;14.30;;;;;;;1.99;85.86;100878.00;5053913;28;20095;-64
2022/01/08 08:52:18;;;;;;;33.22;14.48;;;;;;;2.05;85.73;100880.22;5053135;28;20052;-64
2022/01/08 08:54:45;;;;;;;32.70;15.10;;;;;;;2.02;86.12;100879.56;5042183;28;20045;-64
2022/01/08 08:57:11;;;;;;;33.90;15.07;;;;;;;2.08;86.39;100880.03;5052744;28;20090;-64
2022/01/08 08:59:38;;;;;;;40.78;16.05;;;;;;;2.19;85.68;100881.16;5060157;28;20032;-64
2022/01/08 09:02:05;;;;;;;46.92;17.35;;;;;;;2.07;85.63;100878.38;5093101;28;20141;-64
2022/01/08 09:04:32;;;;;;;38.88;16.65;;;;;;;2.19;86.64;100878.53;5070863;28;20135;-64
2022/01/08 09:06:58;;;;;;;35.78;15.05;;;;;;;2.25;86.46;100878.13;5068999;28;20344;-64
2022/01/08 09:09:26;;;;;;;36.80;15.27;;;;;;;2.29;85.27;100875.22;5066180;28;20442;-64
2022/01/08 09:11:53;;;;;;;39.20;16.65;;;;;;;2.24;86.14;100868.59;5066910;28;20052;-64
2022/01/08 09:14:21;;;;;;;37.50;16.52;;;;;;;2.25;85.81;100865.03;5061862;28;20044;-64
2022/01/08 09:16:52;;;;;;;39.70;14.60;;;;;;;2.27;86.34;100864.03;5069805;28;20406;-64
2022/01/08 09:19:21;;;;;;;37.80;15.10;;;;;;;2.35;85.46;100866.16;5070464;28;20127;-64
2022/01/08 09:21:49;;;;;;;34.65;14.98;;;;;;;2.35;85.65;100866.16;5069999;28;20093;-63
2022/01/08 09:24:18;;;;;;;42.85;15.52;;;;;;;2.44;85.61;100864.72;5068258;28;20048;-64
2022/01/08 09:26:46;;;;;;;37.30;14.77;;;;;;;2.52;85.46;100869.47;5061708;28;20443;-64
2022/01/08 09:29:13;;;;;;;39.13;14.43;;;;;;;2.60;85.89;100869.78;5083829;28;20033;-64
2022/01/08 09:31:39;;;;;;;33.45;14.57;;;;;;;2.57;84.69;100872.63;5070212;28;20094;-64
2022/01/08 09:34:08;;;;;;;35.42;15.57;;;;;;;2.72;84.63;100865.53;5070689;28;20047;-64
2022/01/08 09:36:37;;;;;;;35.67;14.32;;;;;;;2.58;84.84;100867.25;5053080;28;20052;-64
2022/01/08 09:39:06;;;;;;;42.47;14.77;;;;;;;2.74;83.72;100859.25;5052546;28;20048;-65
2022/01/08 09:41:32;;;;;;;40.85;15.00;;;;;;;2.69;85.07;100864.81;5058371;28;20098;-65
2022/01/08 09:43:59;;;;;;;37.88;15.15;;;;;;;2.76;84.60;100860.00;5058546;28;20494;-65
2022/01/08 09:46:26;;;;;;;39.95;15.05;;;;;;;2.72;83.92;100850.66;5051589;28;20114;-65
2022/01/08 09:48:53;;;;;;;43.88;15.30;;;;;;;2.94;83.63;100857.09;5052727;28;20041;-65
2022/01/08 09:51:20;;;;;;;32.22;13.80;;;;;;;2.83;83.73;100855.19;5036596;28;20108;-65
2022/01/08 09:53:47;;;;;;;39.45;15.93;;;;;;;2.91;83.35;100852.94;5072607;28;20124;-65
2022/01/08 09:56:14;;;;;;;35.35;14.20;;;;;;;2.78;84.18;100852.03;5071535;28;20039;-65
2022/01/08 09:58:41;;;;;;;47.25;15.45;;;;;;;2.83;84.15;100853.41;5071605;28;20040;-65
2022/01/08 10:01:29;;;;;;;40.53;16.15;;;;;;;2.82;84.77;100832.53;5073044;28;20048;-65
2022/01/08 10:03:58;;;;;;;34.22;14.75;;;;;;;2.97;84.70;100836.78;5093188;28;20040;-65
2022/01/08 10:06:29;;;;;;;39.70;14.85;;;;;;;3.18;82.63;100826.59;5090007;28;20044;-65
2022/01/08 10:08:56;;;;;;;36.60;15.30;;;;;;;3.14;82.85;100827.78;5053435;28;20044;-65
2022/01/08 10:11:24;;;;;;;34.97;14.27;;;;;;;2.95;82.78;100833.41;5070130;28;20317;-65
2022/01/08 10:14:02;;;;;;;31.90;13.75;;;;;;;2.95;83.08;100829.94;5072791;28;20043;-65
2022/01/08 10:19:21;;;;;;;36.40;13.43;;;;;;;3.11;82.13;100808.78;5072540;28;20076;-65
2022/01/08 10:21:48;;;;;;;36.72;13.75;;;;;;;3.02;82.12;100802.38;5072129;28;20061;-64
2022/01/08 10:24:26;;;;;;;30.50;13.23;;;;;;;3.05;82.45;100803.00;5072600;28;20052;-64
2022/01/08 10:27:03;;;;;;;32.00;12.52;;;;;;;3.15;81.97;100798.00;5071332;28;20071;-64
2022/01/08 10:29:30;;;;;;;29.73;12.57;;;;;;;3.15;81.61;100791.94;5072674;28;20041;-64
2022/01/08 10:31:59;;;;;;;35.50;11.77;;;;;;;3.24;82.89;100786.88;5070675;28;20048;-64
2022/01/08 10:34:29;;;;;;;31.88;12.23;;;;;;;3.32;82.23;100783.72;5060332;28;20076;-64
2022/01/08 10:37:06;;;;;;;30.52;11.80;;;;;;;3.52;80.84;100786.75;5052322;28;20045;-64
2022/01/08 10:39:39;;;;;;;29.38;12.35;;;;;;;3.39;80.61;100778.91;5054322;28;20406;-64
2022/01/08 10:42:12;;;;;;;27.55;10.93;;;;;;;3.31;80.87;100776.81;5038848;28;20379;-65
2022/01/08 10:44:41;;;;;;;27.35;11.25;;;;;;;3.41;80.97;100764.72;5055040;28;20462;-65
2022/01/08 10:47:13;;;;;;;38.90;11.80;;;;;;;3.43;80.46;100759.38;5056503;28;20059;-65
2022/01/08 10:49:45;;;;;;;29.27;10.80;;;;;;;3.49;80.91;100761.56;5055441;28;20037;-65
2022/01/08 10:52:13;;;;;;;;;;;;;;;3.51;80.58;100745.72;5055662;28;20477;-65
2022/01/08 10:54:45;;;;;;;24.48;10.27;;;;;;;3.52;81.39;100729.88;5056212;28;19927;-65
2022/01/08 10:57:14;;;;;;;28.15;10.25;;;;;;;3.63;79.60;100724.69;5067723;28;20037;-64
2022/01/08 10:59:42;;;;;;;25.73;9.82;;;;;;;3.67;79.43;100717.44;5076012;28;20489;-65
2022/01/08 11:02:11;;;;;;;20.58;7.65;;;;;;;3.75;78.07;100712.50;5077599;28;20048;-64
2022/01/08 11:04:51;;;;;;;18.85;8.35;;;;;;;3.79;78.05;100700.00;5094707;28;20036;-64
2022/01/08 11:07:21;;;;;;;22.88;8.63;;;;;;;3.90;78.01;100697.44;5096046;28;20043;-64
2022/01/08 11:09:50;;;;;;;21.25;8.60;;;;;;;3.92;77.98;100690.28;5073011;28;20383;-64
2022/01/08 11:12:24;;;;;;;27.20;9.70;;;;;;;3.98;77.47;100686.34;5059129;28;20048;-64
2022/01/08 11:17:23;;;;;;;22.90;8.38;;;;;;;3.71;77.53;100681.34;5054634;28;20041;-64
2022/01/08 11:19:56;;;;;;;35.05;9.10;;;;;;;3.94;76.88;100674.41;5055895;28;20041;-64
2022/01/08 11:22:25;;;;;;;21.33;7.78;;;;;;;3.91;77.12;100658.88;5056475;28;20576;-65
2022/01/08 11:27:40;;;;;;;23.25;8.55;;;;;;;3.90;77.95;100668.56;5121706;27;20495;-65
2022/01/08 11:30:12;;;;;;;20.98;8.00;;;;;;;3.81;76.14;100658.72;5111119;27;20131;-66
2022/01/08 11:32:40;;;;;;;19.38;7.40;;;;;;;3.86;78.07;100643.50;5110221;28;20044;-63
2022/01/08 11:35:19;;;;;;;17.63;7.13;;;;;;;3.96;76.62;100633.97;5111108;28;20040;-64
2022/01/08 11:37:47;;;;;;;25.10;7.68;;;;;;;4.04;76.26;100610.63;5110291;28;20497;-64
2022/01/08 11:40:16;;;;;;;20.90;7.43;;;;;;;4.10;76.87;100605.88;5110389;28;20040;-65
2022/01/08 11:42:43;;;;;;;18.10;7.10;;;;;;;4.10;77.04;100609.31;5125884;28;20039;-65
2022/01/08 11:45:14;;;;;;;15.88;6.38;;;;;;;4.33;75.26;100606.72;5108901;28;20062;-64
2022/01/08 11:47:47;;;;;;;20.00;6.27;;;;;;;4.36;73.75;100598.63;5110239;28;20438;-65